createdAt,value
2022-07-29T00:00:01.811Z,0.13
2022-07-29T00:01:01.930Z,0
2022-07-29T00:02:02.045Z,0
2022-07-29T00:03:02.280Z,0
2022-07-29T00:04:02.618Z,0
2022-07-29T00:05:02.897Z,0
2022-07-29T00:06:03.021Z,0
2022-07-29T00:07:03.141Z,0
2022-07-29T00:08:03.260Z,0
2022-07-29T00:09:03.374Z,0
2022-07-29T00:10:03.492Z,0
2022-07-29T00:11:03.605Z,0
2022-07-29T00:12:03.716Z,0.56
2022-07-29T00:13:03.829Z,0.5
2022-07-29T00:14:03.951Z,0.85
2022-07-29T00:15:04.068Z,0.28
2022-07-29T00:16:05.546Z,1.33
2022-07-29T00:17:05.697Z,0.14
2022-07-29T00:18:05.816Z,0.25
2022-07-29T00:19:08.170Z,0
2022-07-29T00:20:08.294Z,0.94
2022-07-29T00:21:08.408Z,0.81
2022-07-29T00:22:08.518Z,0.37
2022-07-29T00:23:13.889Z,1.29
2022-07-29T00:24:15.009Z,1
2022-07-29T00:25:15.254Z,1.83
2022-07-29T00:26:15.371Z,1.04
2022-07-29T00:27:15.522Z,1.27
2022-07-29T00:28:15.644Z,0.77
2022-07-29T00:29:35.543Z,0.71
2022-07-29T00:30:35.725Z,0.92
2022-07-29T00:31:36.229Z,0
2022-07-29T00:32:36.378Z,0.67
2022-07-29T00:33:36.490Z,0.66
2022-07-29T00:34:36.611Z,0.29
2022-07-29T00:35:36.735Z,0.66
2022-07-29T00:36:36.859Z,0.29
2022-07-29T00:37:36.974Z,1.54
2022-07-29T00:38:37.100Z,0.56
2022-07-29T00:39:37.216Z,0.27
2022-07-29T00:40:44.176Z,0
2022-07-29T00:41:44.631Z,1.58
2022-07-29T00:42:44.753Z,1.03
2022-07-29T00:43:44.892Z,0.54
2022-07-29T00:44:45.053Z,1.29
2022-07-29T00:45:45.233Z,0.42
2022-07-29T00:46:45.533Z,0.45
2022-07-29T00:47:45.668Z,0
2022-07-29T00:48:45.973Z,0.1
2022-07-29T00:49:46.136Z,0
2022-07-29T00:50:46.276Z,0.45
2022-07-29T00:51:46.491Z,0.33
2022-07-29T00:52:46.642Z,0.16
2022-07-29T00:53:46.755Z,0.26
2022-07-29T00:54:46.882Z,0.95
2022-07-29T00:55:47.003Z,0.89
2022-07-29T00:56:47.123Z,1.06
2022-07-29T00:57:47.276Z,1.12
2022-07-29T00:58:47.394Z,0
2022-07-29T00:59:47.514Z,0.37
2022-07-29T01:00:47.809Z,1.2
2022-07-29T01:01:48.171Z,0
2022-07-29T01:02:48.305Z,0.63
2022-07-29T01:03:48.421Z,0
2022-07-29T01:04:48.530Z,1.04
2022-07-29T01:05:52.151Z,0
2022-07-29T01:06:52.294Z,0.41
2022-07-29T01:07:52.410Z,1
2022-07-29T01:08:52.533Z,1.08
2022-07-29T01:09:52.649Z,0.21
2022-07-29T01:10:52.768Z,0.43
2022-07-29T01:11:52.888Z,0.56
2022-07-29T01:12:53.016Z,0
2022-07-29T01:13:53.138Z,0
2022-07-29T01:14:53.255Z,0
2022-07-29T01:15:53.707Z,0
2022-07-29T01:16:53.854Z,0
2022-07-29T01:17:54.071Z,0.29
2022-07-29T01:18:54.194Z,0
2022-07-29T01:19:54.307Z,0
2022-07-29T01:20:54.430Z,0
2022-07-29T01:21:54.547Z,0
2022-07-29T01:22:54.665Z,0
2022-07-29T01:23:54.776Z,0
2022-07-29T01:24:54.894Z,0
2022-07-29T01:25:57.039Z,0
2022-07-29T01:26:57.155Z,0
2022-07-29T01:27:57.269Z,0
2022-07-29T01:28:57.386Z,0
2022-07-29T01:29:58.423Z,0
2022-07-29T01:30:59.555Z,0.7
2022-07-29T01:32:01.523Z,0.7
2022-07-29T01:33:01.683Z,0
2022-07-29T01:34:01.795Z,1.79
2022-07-29T01:35:01.979Z,0.56
2022-07-29T01:36:02.104Z,0.15
2022-07-29T01:37:02.221Z,0.23
2022-07-29T01:38:02.345Z,0
2022-07-29T01:39:02.466Z,1.08
2022-07-29T01:40:02.580Z,0.58
2022-07-29T01:41:02.697Z,0.45
2022-07-29T01:42:02.822Z,1.04
2022-07-29T01:43:02.939Z,0.64
2022-07-29T01:44:03.059Z,0
2022-07-29T01:45:03.208Z,0
2022-07-29T01:46:03.333Z,0
2022-07-29T01:47:03.660Z,0
2022-07-29T01:48:03.796Z,0.37
2022-07-29T01:49:04.198Z,0
2022-07-29T01:50:04.334Z,0
2022-07-29T01:51:04.458Z,0.47
2022-07-29T01:52:04.575Z,0
2022-07-29T01:53:04.693Z,0
2022-07-29T01:54:04.810Z,1.04
2022-07-29T01:55:04.932Z,1.16
2022-07-29T01:56:05.047Z,0.7
2022-07-29T01:57:05.169Z,0.58
2022-07-29T01:58:05.285Z,0.7
2022-07-29T01:59:05.411Z,0.75
2022-07-29T02:00:05.530Z,0.66
2022-07-29T02:01:05.651Z,0.66
2022-07-29T02:02:05.993Z,0
2022-07-29T02:03:06.142Z,0.41
2022-07-29T02:04:06.267Z,0
2022-07-29T02:05:06.628Z,0
2022-07-29T02:06:06.762Z,0
2022-07-29T02:07:06.881Z,0.14
2022-07-29T02:08:07.010Z,0.58
2022-07-29T02:09:08.727Z,0
2022-07-29T02:10:08.847Z,0.58
2022-07-29T02:11:08.964Z,0.16
2022-07-29T02:12:09.079Z,0
2022-07-29T02:13:09.193Z,0
2022-07-29T02:14:09.315Z,0
2022-07-29T02:15:13.337Z,0
2022-07-29T02:16:15.803Z,0
2022-07-29T02:17:15.950Z,0
2022-07-29T02:18:16.081Z,0
2022-07-29T02:19:16.204Z,0
2022-07-29T02:20:16.320Z,0
2022-07-29T02:21:16.442Z,0
2022-07-29T02:22:16.566Z,0
2022-07-29T02:23:16.681Z,0
2022-07-29T02:24:17.989Z,0.75
2022-07-29T02:25:18.971Z,0.12
2022-07-29T02:26:19.082Z,0
2022-07-29T02:27:19.193Z,0
2022-07-29T02:28:19.315Z,0
2022-07-29T02:29:19.430Z,0
2022-07-29T02:30:19.551Z,0
2022-07-29T02:31:20.194Z,0
2022-07-29T02:32:20.363Z,0
2022-07-29T02:33:20.512Z,0
2022-07-29T02:34:21.587Z,0
2022-07-29T02:35:21.759Z,0
2022-07-29T02:36:21.944Z,0
2022-07-29T02:37:22.081Z,0
2022-07-29T02:38:22.195Z,0
2022-07-29T02:39:22.316Z,0
2022-07-29T02:40:22.448Z,0
2022-07-29T02:41:22.580Z,0
2022-07-29T02:42:22.690Z,0
2022-07-29T02:43:22.806Z,0
2022-07-29T02:44:22.920Z,0
2022-07-29T02:45:23.043Z,0
2022-07-29T02:46:29.891Z,0
2022-07-29T02:47:30.035Z,0
2022-07-29T02:48:30.158Z,0
2022-07-29T02:49:30.290Z,0
2022-07-29T02:50:30.416Z,0
2022-07-29T02:51:45.264Z,0
2022-07-29T02:52:45.409Z,0
2022-07-29T02:53:45.564Z,0
2022-07-29T02:54:45.675Z,0
2022-07-29T02:55:45.795Z,0
2022-07-29T02:56:45.925Z,0
2022-07-29T02:57:55.838Z,0
2022-07-29T02:58:55.962Z,0
2022-07-29T02:59:56.073Z,0
2022-07-29T03:00:56.193Z,0
2022-07-29T03:01:56.636Z,0
2022-07-29T03:02:56.797Z,0
2022-07-29T03:03:56.917Z,0
2022-07-29T03:04:58.470Z,0
2022-07-29T03:06:01.087Z,0
2022-07-29T03:07:01.216Z,0
2022-07-29T03:08:01.354Z,0
2022-07-29T03:09:01.472Z,0
2022-07-29T03:10:01.604Z,0
2022-07-29T03:11:01.731Z,0
2022-07-29T03:12:01.847Z,0
2022-07-29T03:13:01.970Z,0
2022-07-29T03:14:02.081Z,0
2022-07-29T03:15:02.195Z,0
2022-07-29T03:16:02.578Z,0
2022-07-29T03:17:02.722Z,0.33
2022-07-29T03:18:02.850Z,0.61
2022-07-29T03:19:02.971Z,0.16
2022-07-29T03:20:03.091Z,0
2022-07-29T03:21:03.224Z,0
2022-07-29T03:22:03.343Z,0
2022-07-29T03:23:03.486Z,0
2022-07-29T03:24:11.239Z,0
2022-07-29T03:25:11.404Z,0
2022-07-29T03:26:11.524Z,0
2022-07-29T03:27:11.640Z,0
2022-07-29T03:28:11.760Z,0
2022-07-29T03:29:14.080Z,0
2022-07-29T03:30:22.750Z,0
2022-07-29T03:31:23.567Z,0
2022-07-29T03:32:25.465Z,0
2022-07-29T03:33:25.577Z,0
2022-07-29T03:34:25.696Z,0
2022-07-29T03:35:25.815Z,0
2022-07-29T03:36:25.940Z,0
2022-07-29T03:37:26.055Z,0
2022-07-29T03:38:27.086Z,0
2022-07-29T03:39:27.203Z,0
2022-07-29T03:40:27.330Z,0
2022-07-29T03:41:27.449Z,0
2022-07-29T03:42:34.632Z,0
2022-07-29T03:43:34.804Z,0
2022-07-29T03:44:34.944Z,0
2022-07-29T03:45:35.093Z,0
2022-07-29T03:46:35.378Z,0
2022-07-29T03:47:57.154Z,0.54
2022-07-29T03:49:00.311Z,0.32
2022-07-29T03:50:00.470Z,0
2022-07-29T03:51:00.602Z,0.2
2022-07-29T03:52:00.714Z,0
2022-07-29T03:53:00.839Z,0
2022-07-29T03:54:10.350Z,0.12
2022-07-29T03:55:10.534Z,0.93
2022-07-29T03:56:10.658Z,0.16
2022-07-29T03:57:10.780Z,0
2022-07-29T03:58:10.894Z,0
2022-07-29T03:59:11.014Z,0.5
2022-07-29T04:00:11.154Z,0
2022-07-29T04:01:11.281Z,0
2022-07-29T04:02:11.714Z,0
2022-07-29T04:03:15.912Z,0.41
2022-07-29T04:04:17.732Z,0
2022-07-29T04:05:18.148Z,0.47
2022-07-29T04:06:18.271Z,0.87
2022-07-29T04:07:18.418Z,1.92
2022-07-29T04:08:18.533Z,1.3
2022-07-29T04:09:18.637Z,2.44
2022-07-29T04:10:34.242Z,1.33
2022-07-29T04:12:04.585Z,1.95
2022-07-29T04:13:04.783Z,0.8
2022-07-29T04:14:04.898Z,1.41
2022-07-29T04:15:05.021Z,0.57
2022-07-29T04:16:05.342Z,0.6
2022-07-29T04:17:05.504Z,0.29
2022-07-29T04:18:05.682Z,0.18
2022-07-29T04:19:05.798Z,0.81
2022-07-29T04:20:05.985Z,1.16
2022-07-29T04:21:06.132Z,0.98
2022-07-29T04:22:06.259Z,0
2022-07-29T04:23:06.379Z,0
2022-07-29T04:24:06.495Z,0.33
2022-07-29T04:25:06.604Z,0.16
2022-07-29T04:26:06.723Z,0.25
2022-07-29T04:27:06.837Z,0.43
2022-07-29T04:28:06.944Z,0.14
2022-07-29T04:29:07.059Z,0.34
2022-07-29T04:30:07.180Z,1.13
2022-07-29T04:31:07.533Z,0.15
2022-07-29T04:32:07.702Z,1.72
2022-07-29T04:33:07.813Z,1.63
2022-07-29T04:34:07.938Z,1.62
2022-07-29T04:35:08.059Z,1.18
2022-07-29T04:36:30.250Z,1.68
2022-07-29T04:37:30.405Z,1.35
2022-07-29T04:38:30.518Z,1.45
2022-07-29T04:39:30.721Z,1.66
2022-07-29T04:40:30.836Z,0.83
2022-07-29T04:41:34.677Z,0.79
2022-07-29T04:42:49.615Z,0.63
2022-07-29T04:43:49.942Z,0.56
2022-07-29T04:44:50.525Z,0.58
2022-07-29T04:45:50.859Z,0.79
2022-07-29T04:46:51.014Z,0
2022-07-29T04:47:51.161Z,0
2022-07-29T04:48:51.505Z,0.16
2022-07-29T04:49:51.652Z,0.6
2022-07-29T04:50:51.763Z,0.5
2022-07-29T04:51:51.884Z,0.29
2022-07-29T04:52:52.002Z,0.54
2022-07-29T04:53:52.117Z,0.83
2022-07-29T04:54:52.232Z,1.95
2022-07-29T04:55:52.366Z,0.64
2022-07-29T04:56:52.484Z,0.15
2022-07-29T04:57:52.605Z,0
2022-07-29T04:58:52.717Z,0.17
2022-07-29T04:59:52.834Z,0.16
2022-07-29T05:00:52.952Z,0.79
2022-07-29T05:01:53.401Z,0.51
2022-07-29T05:02:54.798Z,0.2
2022-07-29T05:04:00.962Z,0
2022-07-29T05:05:01.104Z,0.2
2022-07-29T05:06:01.220Z,0.71
2022-07-29T05:07:01.356Z,0.31
2022-07-29T05:08:01.484Z,0
2022-07-29T05:09:01.609Z,1.45
2022-07-29T05:10:01.729Z,0.23
2022-07-29T05:11:17.003Z,0.87
2022-07-29T05:12:19.489Z,0
2022-07-29T05:13:19.617Z,0
2022-07-29T05:14:21.428Z,0
2022-07-29T05:15:21.541Z,0
2022-07-29T05:16:21.835Z,0
2022-07-29T05:17:21.947Z,0
2022-07-29T05:18:26.450Z,0.29
2022-07-29T05:19:26.565Z,0.31
2022-07-29T05:20:26.686Z,0
2022-07-29T05:21:26.811Z,0
2022-07-29T05:22:26.930Z,0
2022-07-29T05:23:27.052Z,0.54
2022-07-29T05:24:27.169Z,0.87
2022-07-29T05:25:45.134Z,1.12
2022-07-29T05:26:45.251Z,0.61
2022-07-29T05:27:45.368Z,0.75
2022-07-29T05:28:45.483Z,0.53
2022-07-29T05:29:46.138Z,0.2
2022-07-29T05:30:46.369Z,1.08
2022-07-29T05:31:46.551Z,0.75
2022-07-29T05:32:46.674Z,0
2022-07-29T05:33:46.786Z,0.91
2022-07-29T05:34:52.049Z,0.13
2022-07-29T05:35:52.185Z,0.7
2022-07-29T05:36:52.308Z,0.55
2022-07-29T05:37:52.437Z,0
2022-07-29T05:38:52.555Z,0.7
2022-07-29T05:39:59.307Z,0.79
2022-07-29T05:41:00.415Z,0.23
2022-07-29T05:42:00.538Z,0.47
2022-07-29T05:43:00.660Z,0.2
2022-07-29T05:44:00.773Z,0.83
2022-07-29T05:45:00.900Z,0.27
2022-07-29T05:46:01.652Z,0
2022-07-29T05:47:01.837Z,0
2022-07-29T05:48:01.963Z,0
2022-07-29T05:49:02.252Z,0.91
2022-07-29T05:50:02.395Z,0.34
2022-07-29T05:51:02.512Z,0.5
2022-07-29T05:52:02.628Z,1
2022-07-29T05:53:21.303Z,0.41
2022-07-29T05:54:21.470Z,0.51
2022-07-29T05:55:21.587Z,0.83
2022-07-29T05:56:21.707Z,0.62
2022-07-29T05:57:21.832Z,0.15
2022-07-29T05:58:21.955Z,0.7
2022-07-29T05:59:30.550Z,0.32
2022-07-29T06:00:30.814Z,0
2022-07-29T06:01:31.133Z,0.12
2022-07-29T06:02:31.968Z,0.56
2022-07-29T06:03:32.098Z,1.2
2022-07-29T06:04:32.406Z,0.12
2022-07-29T06:05:32.533Z,0.12
2022-07-29T06:06:32.660Z,0.58
2022-07-29T06:07:36.346Z,0.79
2022-07-29T06:08:38.883Z,0.68
2022-07-29T06:09:38.998Z,0.36
2022-07-29T06:10:39.116Z,0
2022-07-29T06:11:39.238Z,1.79
2022-07-29T06:12:39.357Z,0.72
2022-07-29T06:13:39.482Z,0.12
2022-07-29T06:14:39.607Z,0.41
2022-07-29T06:15:39.900Z,2.75
2022-07-29T06:16:40.259Z,0.82
2022-07-29T06:18:02.273Z,1.1
2022-07-29T06:19:02.571Z,1.15
2022-07-29T06:20:02.685Z,0.12
2022-07-29T06:21:02.804Z,1.45
2022-07-29T06:22:02.923Z,0.28
2022-07-29T06:23:03.043Z,0
2022-07-29T06:24:03.166Z,0.75
2022-07-29T06:25:03.298Z,0
2022-07-29T06:26:03.420Z,0
2022-07-29T06:27:03.537Z,0.62
2022-07-29T06:28:03.666Z,0
2022-07-29T06:29:03.799Z,0.77
2022-07-29T06:30:05.535Z,0
2022-07-29T06:31:06.043Z,0
2022-07-29T06:32:06.183Z,0
2022-07-29T06:33:06.304Z,0
2022-07-29T06:34:06.905Z,0
2022-07-29T06:35:42.811Z,0
2022-07-29T06:36:54.294Z,0
2022-07-29T06:38:00.089Z,0
2022-07-29T06:39:03.955Z,0
2022-07-29T06:40:04.073Z,0.2
2022-07-29T06:41:04.226Z,0
2022-07-29T06:42:04.346Z,0
2022-07-29T06:43:07.326Z,0
2022-07-29T06:44:07.446Z,0.16
2022-07-29T06:45:09.599Z,0.7
2022-07-29T06:46:09.921Z,0
2022-07-29T06:47:10.072Z,0
2022-07-29T06:48:10.192Z,0
2022-07-29T06:49:10.489Z,0
2022-07-29T06:50:10.617Z,0
2022-07-29T06:51:10.744Z,0
2022-07-29T06:52:10.858Z,0
2022-07-29T06:53:10.969Z,0
2022-07-29T06:54:11.090Z,0.37
2022-07-29T06:55:25.554Z,0
2022-07-29T06:56:25.692Z,0.5
2022-07-29T06:57:25.833Z,0.54
2022-07-29T06:58:25.961Z,0
2022-07-29T06:59:36.189Z,0.5
2022-07-29T07:00:36.382Z,0
2022-07-29T07:01:36.833Z,0
2022-07-29T07:02:37.222Z,0
2022-07-29T07:03:37.418Z,0
2022-07-29T07:04:37.537Z,0.79
2022-07-29T07:05:37.654Z,0.75
2022-07-29T07:06:37.830Z,0.54
2022-07-29T07:07:37.955Z,0.68
2022-07-29T07:08:38.073Z,0.25
2022-07-29T07:09:41.143Z,0
2022-07-29T07:10:41.266Z,0
2022-07-29T07:11:41.393Z,0.2
2022-07-29T07:12:41.517Z,0
2022-07-29T07:13:41.651Z,0
2022-07-29T07:14:41.778Z,0
2022-07-29T07:15:41.889Z,0
2022-07-29T07:16:42.402Z,0
2022-07-29T07:17:42.565Z,0
2022-07-29T07:18:42.696Z,0
2022-07-29T07:19:42.822Z,0.24
2022-07-29T07:20:42.940Z,0
2022-07-29T07:21:43.089Z,0
2022-07-29T07:22:44.159Z,0
2022-07-29T07:23:44.293Z,0.12
2022-07-29T07:24:44.409Z,0.29
2022-07-29T07:25:44.539Z,0
2022-07-29T07:26:44.655Z,0.13
2022-07-29T07:27:44.779Z,0.83
2022-07-29T07:28:44.895Z,1.04
2022-07-29T07:29:45.010Z,0.92
2022-07-29T07:30:45.131Z,1
2022-07-29T07:31:45.489Z,0.44
2022-07-29T07:32:45.632Z,0.37
2022-07-29T07:33:45.743Z,0.48
2022-07-29T07:34:45.869Z,0.66
2022-07-29T07:35:46.015Z,0.5
2022-07-29T07:36:46.812Z,0
2022-07-29T07:37:46.935Z,0.5
2022-07-29T07:38:47.057Z,0.83
2022-07-29T07:39:47.182Z,0.45
2022-07-29T07:40:47.298Z,0.75
2022-07-29T07:41:47.415Z,0
2022-07-29T07:42:47.529Z,0.45
2022-07-29T07:43:47.656Z,0
2022-07-29T07:45:16.720Z,0
2022-07-29T07:46:17.503Z,0
2022-07-29T07:47:18.375Z,0
2022-07-29T07:48:18.504Z,0
2022-07-29T07:49:18.859Z,0
2022-07-29T07:50:19.858Z,0
2022-07-29T07:51:20.027Z,0
2022-07-29T07:52:20.138Z,0
2022-07-29T07:53:20.256Z,0
2022-07-29T07:54:21.188Z,0
2022-07-29T07:55:21.308Z,0
2022-07-29T07:56:22.889Z,0.12
2022-07-29T07:57:23.016Z,0
2022-07-29T07:58:23.127Z,0
2022-07-29T07:59:23.245Z,0
2022-07-29T08:00:24.134Z,0
2022-07-29T08:01:24.490Z,0
2022-07-29T08:02:24.706Z,0
2022-07-29T08:03:24.844Z,0
2022-07-29T08:04:29.766Z,0
2022-07-29T08:05:30.011Z,0
2022-07-29T08:06:30.124Z,0.61
2022-07-29T08:07:30.245Z,0
2022-07-29T08:08:30.363Z,0
2022-07-29T08:09:31.195Z,0
2022-07-29T08:10:31.324Z,0
2022-07-29T08:11:37.789Z,0
2022-07-29T08:12:37.926Z,0
2022-07-29T08:13:38.044Z,0
2022-07-29T08:14:38.169Z,0
2022-07-29T08:15:38.287Z,0
2022-07-29T08:16:38.643Z,0
2022-07-29T08:17:38.791Z,0
2022-07-29T08:18:38.911Z,0
2022-07-29T08:19:39.028Z,0
2022-07-29T08:20:39.142Z,0
2022-07-29T08:21:39.252Z,0
2022-07-29T08:22:39.368Z,0
2022-07-29T08:23:57.969Z,0
2022-07-29T08:24:59.857Z,0
2022-07-29T08:25:59.965Z,0
2022-07-29T08:27:00.077Z,0
2022-07-29T08:28:00.188Z,0
2022-07-29T08:29:00.308Z,0
2022-07-29T08:30:00.462Z,0
2022-07-29T08:31:00.585Z,0
2022-07-29T08:32:03.185Z,0
2022-07-29T08:33:03.389Z,0
2022-07-29T08:34:03.544Z,0
2022-07-29T08:35:03.667Z,0
2022-07-29T08:36:03.792Z,0.66
2022-07-29T08:37:03.923Z,1.2
2022-07-29T08:38:04.043Z,0.31
2022-07-29T08:39:04.160Z,0
2022-07-29T08:40:04.273Z,0
2022-07-29T08:41:04.384Z,0
2022-07-29T08:42:04.503Z,0
2022-07-29T08:43:06.877Z,0.5
2022-07-29T08:44:07.014Z,0
2022-07-29T08:45:07.124Z,0
2022-07-29T08:46:07.365Z,0
2022-07-29T08:47:07.487Z,0
2022-07-29T08:48:10.280Z,0
2022-07-29T08:49:10.627Z,0
2022-07-29T08:50:10.748Z,0
2022-07-29T08:51:10.860Z,0
2022-07-29T08:52:10.974Z,0
2022-07-29T08:53:11.097Z,0
2022-07-29T08:54:11.220Z,0.18
2022-07-29T08:55:11.344Z,0
2022-07-29T08:56:11.456Z,0
2022-07-29T08:57:14.473Z,0
2022-07-29T08:58:16.127Z,0.29
2022-07-29T08:59:16.242Z,0.52
2022-07-29T09:00:16.381Z,0
2022-07-29T09:01:20.780Z,0
2022-07-29T09:02:20.926Z,0
2022-07-29T09:03:21.232Z,0
2022-07-29T09:04:21.374Z,0
2022-07-29T09:05:21.493Z,0
2022-07-29T09:06:21.615Z,0
2022-07-29T09:07:21.743Z,0
2022-07-29T09:08:22.345Z,0
2022-07-29T09:09:22.470Z,0
2022-07-29T09:10:22.579Z,0
2022-07-29T09:11:22.698Z,0
2022-07-29T09:12:34.844Z,0
2022-07-29T09:13:37.848Z,0
2022-07-29T09:14:37.966Z,0
2022-07-29T09:15:38.090Z,0
2022-07-29T09:17:01.668Z,0
2022-07-29T09:18:01.977Z,0
2022-07-29T09:19:02.102Z,0
2022-07-29T09:20:02.224Z,0.29
2022-07-29T09:21:02.338Z,0.64
2022-07-29T09:22:04.341Z,0.12
2022-07-29T09:23:04.463Z,0.53
2022-07-29T09:24:04.604Z,0.79
2022-07-29T09:25:04.717Z,0.62
2022-07-29T09:26:04.874Z,0
2022-07-29T09:27:04.989Z,0
2022-07-29T09:28:05.116Z,0
2022-07-29T09:29:05.229Z,0
2022-07-29T09:30:05.452Z,0
2022-07-29T09:31:05.783Z,0
2022-07-29T09:32:06.129Z,0
2022-07-29T09:33:06.271Z,0
2022-07-29T09:34:06.384Z,0
2022-07-29T09:35:06.498Z,0
2022-07-29T09:36:06.622Z,0
2022-07-29T09:37:06.746Z,0
2022-07-29T09:38:06.867Z,0
2022-07-29T09:39:06.975Z,0
2022-07-29T09:40:12.083Z,0
2022-07-29T09:41:12.196Z,0
2022-07-29T09:42:12.323Z,0
2022-07-29T09:43:12.441Z,0
2022-07-29T09:44:12.565Z,0
2022-07-29T09:45:12.713Z,0
2022-07-29T09:46:13.300Z,0
2022-07-29T09:47:13.590Z,0
2022-07-29T09:48:13.786Z,0
2022-07-29T09:49:14.231Z,0
2022-07-29T09:50:14.387Z,0
2022-07-29T09:51:26.786Z,0
2022-07-29T09:52:27.177Z,0
2022-07-29T09:53:27.296Z,0
2022-07-29T09:54:27.419Z,0
2022-07-29T09:55:27.534Z,0
2022-07-29T09:56:27.663Z,0
2022-07-29T09:57:31.570Z,0
2022-07-29T09:58:31.695Z,0
2022-07-29T09:59:31.815Z,0
2022-07-29T10:00:32.142Z,0
2022-07-29T10:01:32.279Z,0
2022-07-29T10:02:32.735Z,0
2022-07-29T10:03:33.102Z,0.83
2022-07-29T10:04:33.231Z,0.15
2022-07-29T10:05:37.186Z,0
2022-07-29T10:06:37.297Z,0
2022-07-29T10:07:37.416Z,0.12
2022-07-29T10:08:37.539Z,0
2022-07-29T10:09:37.659Z,0.7
2022-07-29T10:10:37.799Z,0
2022-07-29T10:11:50.064Z,0
2022-07-29T10:12:50.180Z,0
2022-07-29T10:13:50.298Z,0
2022-07-29T10:14:50.406Z,0
2022-07-29T10:15:50.605Z,0.29
2022-07-29T10:16:50.748Z,0.89
2022-07-29T10:17:50.863Z,0.14
2022-07-29T10:18:52.707Z,0.75
2022-07-29T10:19:52.839Z,0.16
2022-07-29T10:20:52.957Z,0.58
2022-07-29T10:21:58.380Z,0.87
2022-07-29T10:22:58.528Z,0
2022-07-29T10:24:01.837Z,0.18
2022-07-29T10:25:01.965Z,0.2
2022-07-29T10:26:02.072Z,0.63
2022-07-29T10:27:02.199Z,0
2022-07-29T10:28:02.322Z,0.54
2022-07-29T10:29:02.440Z,0
2022-07-29T10:30:02.563Z,0
2022-07-29T10:31:02.883Z,0
2022-07-29T10:32:03.024Z,0
2022-07-29T10:33:03.138Z,0
2022-07-29T10:34:03.265Z,0.87
2022-07-29T10:35:03.377Z,0
2022-07-29T10:36:03.494Z,0
2022-07-29T10:37:03.864Z,0
2022-07-29T10:38:03.984Z,0
2022-07-29T10:39:04.103Z,0
2022-07-29T10:40:04.216Z,0
2022-07-29T10:41:08.754Z,0
2022-07-29T10:42:09.309Z,0
2022-07-29T10:43:15.921Z,0
2022-07-29T10:44:23.696Z,0.11
2022-07-29T10:45:24.774Z,0.37
2022-07-29T10:46:25.899Z,0
2022-07-29T10:47:26.052Z,0
2022-07-29T10:48:26.267Z,0
2022-07-29T10:49:26.515Z,0
2022-07-29T10:50:27.001Z,0
2022-07-29T10:51:28.257Z,0
2022-07-29T12:07:15.956Z,0
2022-07-29T12:08:16.102Z,0.83
2022-07-29T12:09:16.746Z,0.1
2022-07-29T12:10:31.055Z,0
2022-07-29T12:11:31.227Z,0.95
2022-07-29T12:12:31.367Z,0.29
2022-07-29T12:13:38.206Z,0
2022-07-29T12:14:39.014Z,0.1
2022-07-29T12:15:47.488Z,0.37
2022-07-29T12:16:48.657Z,0.37
2022-07-29T12:17:48.803Z,1.41
2022-07-29T12:18:48.928Z,0.91
2022-07-29T12:19:51.093Z,0.66
2022-07-29T12:20:51.208Z,0.41
2022-07-29T12:22:01.165Z,0.16
2022-07-29T12:23:02.694Z,1.33
2022-07-29T12:24:09.757Z,2.25
2022-07-29T12:25:34.656Z,2.4
2022-07-29T12:26:35.993Z,0.43
2022-07-29T12:27:40.772Z,0.95
2022-07-29T12:28:41.384Z,1.95
2022-07-29T12:29:49.004Z,0.12
2022-07-29T12:30:51.873Z,0.12
2022-07-29T12:31:58.248Z,1.75
2022-07-29T12:32:58.532Z,1.56
2022-07-29T12:33:58.651Z,0.8
2022-07-29T12:34:58.765Z,0.41
2022-07-29T12:36:17.231Z,0.25
2022-07-29T12:37:17.813Z,0.11
2022-07-29T12:38:17.923Z,0
2022-07-29T12:39:18.044Z,0.62
2022-07-29T12:40:18.163Z,0.94
2022-07-29T12:41:18.287Z,1.33
2022-07-29T12:42:19.113Z,0.52
2022-07-29T12:43:19.225Z,1.9
2022-07-29T12:44:19.346Z,1.7
2022-07-29T12:45:19.468Z,2.25
2022-07-29T12:46:19.837Z,0.63
2022-07-29T12:47:19.978Z,2
2022-07-29T12:48:20.094Z,1.52
2022-07-29T12:49:20.409Z,1.75
2022-07-29T12:50:26.717Z,0.91
2022-07-29T12:51:28.799Z,1.85
2022-07-29T12:52:29.399Z,0.68
2022-07-29T12:53:29.511Z,1.93
2022-07-29T12:54:29.620Z,0.29
2022-07-29T12:55:29.733Z,0.67
2022-07-29T12:56:45.242Z,0.4
2022-07-29T12:57:45.566Z,1.72
2022-07-29T12:58:51.651Z,1.91
2022-07-29T12:59:51.790Z,0
2022-07-29T13:00:52.117Z,0.79
2022-07-29T13:01:52.850Z,1.29
2022-07-29T13:02:53.157Z,2.04
2022-07-29T13:03:59.933Z,1.25
2022-07-29T13:05:01.321Z,1.91
2022-07-29T13:06:01.441Z,0.45
2022-07-29T13:07:01.551Z,0.25
2022-07-29T13:08:03.031Z,1.59
2022-07-29T13:09:03.140Z,0.88
2022-07-29T13:10:03.250Z,1.96
2022-07-29T13:11:03.982Z,2.25
2022-07-29T13:12:05.500Z,1.79
2022-07-29T13:13:05.700Z,2
2022-07-29T13:14:07.406Z,1.59
2022-07-29T13:15:07.523Z,1.61
2022-07-29T13:16:07.642Z,0.95
2022-07-29T13:17:07.853Z,2.5
2022-07-29T13:18:07.966Z,3.45
2022-07-29T13:19:08.077Z,2.04
2022-07-29T13:20:09.120Z,2.22
2022-07-29T13:21:09.363Z,0.69
2022-07-29T13:22:09.494Z,0.31
2022-07-29T13:23:09.673Z,0.16
2022-07-29T13:24:09.811Z,0
2022-07-29T13:25:09.927Z,0.12
2022-07-29T13:26:10.044Z,1.81
2022-07-29T13:27:10.156Z,0.67
2022-07-29T13:28:10.273Z,1.7
2022-07-29T13:29:10.389Z,1.54
2022-07-29T13:30:10.493Z,1.22
2022-07-29T13:31:10.846Z,1.25
2022-07-29T13:32:11.002Z,1.79
2022-07-29T13:33:11.115Z,1.52
2022-07-29T13:34:11.227Z,1.66
2022-07-29T13:35:11.343Z,0.36
2022-07-29T13:36:11.493Z,1
2022-07-29T13:37:11.637Z,0
2022-07-29T13:38:11.757Z,0
2022-07-29T13:39:11.868Z,0
2022-07-29T13:40:11.979Z,0
2022-07-29T13:41:12.094Z,0
2022-07-29T13:42:12.206Z,0.95
2022-07-29T13:43:12.317Z,0
2022-07-29T13:44:12.430Z,0.12
2022-07-29T13:45:12.543Z,1.45
2022-07-29T13:46:13.098Z,1.66
2022-07-29T13:47:13.249Z,1.41
2022-07-29T13:48:13.357Z,0.49
2022-07-29T13:49:13.724Z,0.75
2022-07-29T13:50:13.869Z,2.79
2022-07-29T13:51:14.039Z,1.48
2022-07-29T13:52:14.251Z,1.2
2022-07-29T13:53:18.289Z,1.22
2022-07-29T13:54:18.404Z,1.2
2022-07-29T13:55:18.526Z,1.62
2022-07-29T13:56:19.274Z,0.18
2022-07-29T13:57:19.389Z,0.52
2022-07-29T13:58:19.498Z,0.91
2022-07-29T13:59:19.620Z,0.5
2022-07-29T14:00:19.818Z,0
2022-07-29T14:01:20.228Z,0
2022-07-29T14:02:20.367Z,1.29
2022-07-29T14:03:20.481Z,0.85
2022-07-29T14:04:21.204Z,0.32
2022-07-29T14:05:21.382Z,0
2022-07-29T14:06:22.464Z,0.76
2022-07-29T14:07:22.592Z,1.51
2022-07-29T14:08:24.096Z,4.08
2022-07-29T14:09:24.207Z,2.75
2022-07-29T14:10:24.320Z,3.75
2022-07-29T14:11:24.439Z,2.97
2022-07-29T14:12:24.552Z,1.94
2022-07-29T14:13:26.617Z,1.11
2022-07-29T14:14:26.730Z,2.37
2022-07-29T14:15:26.847Z,2.45
2022-07-29T14:16:27.119Z,1.81
2022-07-29T14:17:27.255Z,1.41
2022-07-29T14:18:27.362Z,2.39
2022-07-29T14:19:27.469Z,3.31
2022-07-29T14:20:27.581Z,2.19
2022-07-29T14:21:28.408Z,3
2022-07-29T14:22:28.546Z,3.87
2022-07-29T14:23:28.671Z,2.46
2022-07-29T14:24:29.323Z,2.14
2022-07-29T14:25:29.439Z,2.5
2022-07-29T14:26:29.788Z,1.85
2022-07-29T14:27:38.810Z,3.51
2022-07-29T14:28:42.209Z,2.29
2022-07-29T14:29:42.320Z,3.04
2022-07-29T14:30:42.437Z,1.54
2022-07-29T14:31:42.746Z,1.47
2022-07-29T14:32:42.894Z,1.27
2022-07-29T14:33:49.496Z,1.66
2022-07-29T14:34:49.619Z,2.37
2022-07-29T14:35:49.737Z,1.54
2022-07-29T14:36:49.850Z,1.04
2022-07-29T14:37:49.970Z,0.83
2022-07-29T14:38:50.084Z,2.93
2022-07-29T14:39:50.197Z,0.83
2022-07-29T14:40:51.131Z,1
2022-07-29T14:41:51.243Z,0.79
2022-07-29T14:42:51.355Z,0.41
2022-07-29T14:43:51.470Z,2.33
2022-07-29T14:44:51.583Z,0.77
2022-07-29T14:45:51.834Z,1.27
2022-07-29T14:46:51.973Z,1.87
2022-07-29T14:47:58.386Z,1.37
2022-07-29T14:48:58.789Z,1.29
2022-07-29T14:49:58.933Z,1.79
2022-07-29T14:51:05.322Z,2.31
2022-07-29T14:52:05.446Z,2.08
2022-07-29T14:53:05.561Z,1.79
2022-07-29T14:54:05.677Z,2.54
2022-07-29T14:55:20.424Z,1.41
2022-07-29T14:56:37.918Z,1.05
2022-07-29T14:57:46.892Z,1.27
2022-07-29T14:58:52.189Z,0.19
2022-07-29T14:59:52.316Z,0.79
2022-07-29T15:00:52.586Z,1.13
2022-07-29T15:01:52.924Z,1.19
2022-07-29T15:03:03.302Z,1.04
2022-07-29T15:04:03.530Z,0.18
2022-07-29T15:05:03.652Z,1.08
2022-07-29T15:06:03.765Z,1.75
2022-07-29T15:07:03.879Z,0.45
2022-07-29T15:08:04.751Z,1
2022-07-29T15:09:04.868Z,0.45
2022-07-29T15:10:08.460Z,1.83
2022-07-29T15:11:08.579Z,1.04
2022-07-29T15:12:08.700Z,0.5
2022-07-29T15:13:08.816Z,1.22
2022-07-29T15:14:08.935Z,0.52
2022-07-29T15:15:09.046Z,0
2022-07-29T15:16:09.277Z,0.78
2022-07-29T15:17:10.324Z,0
2022-07-29T15:18:10.449Z,0.75
2022-07-29T15:19:10.549Z,0.2
2022-07-29T15:20:10.646Z,0
2022-07-29T15:21:10.757Z,0
2022-07-29T15:22:10.873Z,0
2022-07-29T15:23:10.987Z,0
2022-07-29T15:24:11.103Z,0
2022-07-29T15:25:11.237Z,0
2022-07-29T15:26:11.352Z,0
2022-07-29T15:27:11.468Z,0
2022-07-29T15:28:11.580Z,0
2022-07-29T15:29:11.705Z,0
2022-07-29T15:30:34.614Z,0
2022-07-29T15:31:34.985Z,0
2022-07-29T15:32:35.140Z,0
2022-07-29T15:33:35.255Z,0